Time;durP1;ratioP1;P1;durP2;ratioP2;P2;SDS_P1;SDS_P2;PMS_P1;PMS_P2;Temp;Humidity;BMP_temperature;BMP_pressure;BME280_temperature;BME280_humidity;BME280_pressure;Samples;Min_cycle;Max_cycle;Signal;HPM_P1;HPM_P2
2023/12/15 00:02:11;;;;;;;7.18;3.60;;;12.10;77.70;;;;;;5014929;28;20042;-80
2023/12/15 00:04:37;;;;;;;7.63;3.55;;;12.10;77.80;;;;;;5014755;28;20030;-80
2023/12/15 00:07:03;;;;;;;6.68;3.25;;;12.10;77.80;;;;;;5014672;28;20040;-78
2023/12/15 00:09:28;;;;;;;7.90;3.70;;;12.00;77.90;;;;;;5014613;28;20140;-78
2023/12/15 00:11:54;;;;;;;5.93;3.45;;;12.00;78.00;;;;;;5014185;28;20124;-78
2023/12/15 00:14:20;;;;;;;7.43;3.45;;;12.00;77.90;;;;;;5014150;28;20084;-78
2023/12/15 00:16:45;;;;;;;9.05;3.70;;;12.00;78.00;;;;;;5014158;28;20057;-78
2023/12/15 00:19:12;;;;;;;7.20;3.22;;;12.00;78.10;;;;;;5014177;28;20066;-79
2023/12/15 00:21:37;;;;;;;8.73;3.67;;;12.00;78.00;;;;;;5012622;28;20037;-77
2023/12/15 00:24:08;;;;;;;8.38;3.80;;;12.00;78.20;;;;;;5014352;28;20083;-78
2023/12/15 00:26:34;;;;;;;6.65;3.63;;;12.00;78.30;;;;;;5012967;28;20336;-79
2023/12/15 00:29:00;;;;;;;7.57;3.72;;;12.00;77.80;;;;;;5007352;28;20042;-79
2023/12/15 00:31:26;;;;;;;8.35;3.83;;;12.00;78.00;;;;;;5013810;28;20045;-77
2023/12/15 00:33:51;;;;;;;8.00;3.80;;;11.90;77.80;;;;;;5013848;28;20076;-78
2023/12/15 00:36:17;;;;;;;6.32;3.50;;;11.90;77.90;;;;;;5013791;28;20401;-79
2023/12/15 00:38:43;;;;;;;7.70;4.15;;;11.80;77.90;;;;;;5013627;28;20160;-79
2023/12/15 00:41:08;;;;;;;6.82;3.50;;;11.80;78.10;;;;;;5012767;28;20030;-79
2023/12/15 00:43:34;;;;;;;5.35;3.58;;;11.80;78.20;;;;;;5013523;28;20038;-78
2023/12/15 00:46:00;;;;;;;6.68;3.35;;;11.80;78.20;;;;;;5021950;28;20128;-79
2023/12/15 00:48:25;;;;;;;9.73;3.85;;;11.80;78.20;;;;;;5033656;28;20355;-78
2023/12/15 00:50:51;;;;;;;6.93;3.72;;;11.80;78.30;;;;;;5032081;28;20045;-80
2023/12/15 00:53:17;;;;;;;7.38;4.18;;;11.80;78.20;;;;;;5033167;28;20026;-79
2023/12/15 00:55:42;;;;;;;7.97;3.90;;;11.70;78.10;;;;;;5033295;28;20045;-78
2023/12/15 00:58:08;;;;;;;8.45;4.00;;;11.80;78.50;;;;;;5033205;28;20097;-79
2023/12/15 01:00:33;;;;;;;6.05;3.60;;;11.80;78.10;;;;;;5033016;28;20038;-79
2023/12/15 01:02:59;;;;;;;6.63;3.22;;;11.80;78.10;;;;;;5033095;28;20037;-78
2023/12/15 01:05:25;;;;;;;7.63;3.58;;;11.70;78.20;;;;;;5033076;28;20033;-77
2023/12/15 01:07:50;;;;;;;6.60;3.33;;;11.70;78.40;;;;;;5033176;28;20482;-79
2023/12/15 01:10:16;;;;;;;7.55;3.90;;;11.80;78.60;;;;;;5033036;28;20116;-79
2023/12/15 01:12:42;;;;;;;6.47;3.72;;;11.80;78.50;;;;;;5032618;28;20050;-79
2023/12/15 01:15:08;;;;;;;8.18;3.53;;;11.80;78.50;;;;;;5014444;28;20103;-78
2023/12/15 01:17:33;;;;;;;9.85;3.70;;;11.80;78.70;;;;;;5012955;28;20034;-80
2023/12/15 01:19:59;;;;;;;7.00;3.63;;;11.80;78.40;;;;;;5012738;28;20042;-77
2023/12/15 01:22:25;;;;;;;5.50;3.40;;;11.70;78.40;;;;;;5012972;28;20188;-79
2023/12/15 01:24:50;;;;;;;6.78;3.92;;;11.70;78.40;;;;;;5012605;28;20416;-79
2023/12/15 01:27:16;;;;;;;8.00;3.85;;;11.70;78.40;;;;;;5012696;28;20057;-78
2023/12/15 01:29:42;;;;;;;6.80;3.70;;;11.70;78.40;;;;;;5012610;28;20038;-78
2023/12/15 01:32:08;;;;;;;5.35;3.30;;;11.70;78.50;;;;;;5012458;28;20328;-78
2023/12/15 01:34:33;;;;;;;5.97;3.70;;;11.70;78.10;;;;;;5007029;28;20098;-76
2023/12/15 01:36:59;;;;;;;6.75;3.92;;;11.60;78.00;;;;;;5012356;28;20104;-80
2023/12/15 01:39:25;;;;;;;7.57;3.50;;;11.60;78.00;;;;;;5012575;28;20034;-79
2023/12/15 01:41:50;;;;;;;8.40;3.70;;;11.60;78.10;;;;;;5012115;28;20077;-79
2023/12/15 01:44:16;;;;;;;7.53;3.25;;;11.60;78.10;;;;;;5012159;28;20396;-79
2023/12/15 01:46:42;;;;;;;6.53;3.28;;;11.70;78.00;;;;;;5012574;28;20217;-79
2023/12/15 01:49:08;;;;;;;6.80;3.40;;;11.70;78.10;;;;;;5011041;28;20030;-79
2023/12/15 01:51:33;;;;;;;8.38;3.63;;;11.60;78.60;;;;;;5011182;28;20056;-79
2023/12/15 01:53:59;;;;;;;5.75;3.17;;;11.60;77.90;;;;;;5012279;28;20499;-79
2023/12/15 01:56:25;;;;;;;5.90;3.35;;;11.60;78.10;;;;;;5012503;28;20118;-77
2023/12/15 01:58:51;;;;;;;6.97;3.30;;;11.60;78.10;;;;;;5012917;28;20451;-77
2023/12/15 02:01:16;;;;;;;5.22;3.30;;;11.60;78.10;;;;;;5013629;28;20099;-79
2023/12/15 02:03:42;;;;;;;6.28;3.30;;;11.60;77.90;;;;;;5011774;28;20042;-79
2023/12/15 02:06:08;;;;;;;5.97;3.30;;;11.60;78.00;;;;;;5011112;28;20038;-80
2023/12/15 02:08:33;;;;;;;6.28;3.25;;;11.60;78.60;;;;;;5012262;28;20039;-78
2023/12/15 02:10:59;;;;;;;6.55;3.33;;;11.50;77.70;;;;;;5011693;28;20380;-79
2023/12/15 02:13:25;;;;;;;7.28;3.40;;;11.50;77.80;;;;;;5012109;28;20052;-79
2023/12/15 02:15:51;;;;;;;6.07;3.20;;;11.60;78.00;;;;;;5012234;28;20049;-79
2023/12/15 02:18:16;;;;;;;4.85;2.80;;;11.60;77.90;;;;;;5012187;28;20364;-78
2023/12/15 02:20:42;;;;;;;4.82;3.08;;;11.60;77.80;;;;;;5012125;28;20048;-79
2023/12/15 02:23:08;;;;;;;7.38;3.17;;;11.50;77.60;;;;;;5012084;28;20042;-80
2023/12/15 02:25:33;;;;;;;7.07;3.20;;;11.50;77.80;;;;;;5012123;28;20069;-78
2023/12/15 02:27:59;;;;;;;6.75;3.20;;;11.40;77.70;;;;;;5011956;28;20125;-79
2023/12/15 02:30:25;;;;;;;6.15;3.13;;;11.40;77.70;;;;;;5011035;28;20037;-78
2023/12/15 02:32:50;;;;;;;5.68;3.38;;;11.40;77.70;;;;;;5012076;28;20030;-76
2023/12/15 02:35:16;;;;;;;5.00;2.95;;;11.40;77.70;;;;;;5012012;28;20034;-78
2023/12/15 02:37:42;;;;;;;5.13;3.08;;;11.40;77.70;;;;;;5012112;28;20125;-80
2023/12/15 02:40:09;;;;;;;5.40;3.10;;;11.40;77.70;;;;;;5012055;28;20546;-78
2023/12/15 02:42:35;;;;;;;5.75;2.95;;;11.30;77.60;;;;;;5011727;28;20033;-79
2023/12/15 02:45:01;;;;;;;6.78;3.00;;;11.40;77.80;;;;;;5006786;28;20029;-80
2023/12/15 02:47:28;;;;;;;7.68;3.53;;;11.30;77.50;;;;;;5028296;28;20499;-78
2023/12/15 02:49:54;;;;;;;6.80;3.30;;;11.30;77.60;;;;;;5031691;28;20029;-79
2023/12/15 02:52:20;;;;;;;6.88;3.08;;;11.30;77.80;;;;;;5031122;28;20046;-78
2023/12/15 02:54:46;;;;;;;8.65;3.33;;;11.30;77.80;;;;;;5031443;28;20119;-78
2023/12/15 02:57:12;;;;;;;7.68;3.83;;;11.20;77.80;;;;;;5031756;28;20464;-79
2023/12/15 02:59:38;;;;;;;5.85;3.03;;;11.20;77.80;;;;;;5031662;28;20111;-79
2023/12/15 03:02:04;;;;;;;5.70;3.25;;;11.20;77.70;;;;;;5031327;28;20140;-78
2023/12/15 03:04:29;;;;;;;7.95;3.13;;;11.20;77.90;;;;;;5032562;28;20060;-78
2023/12/15 03:06:55;;;;;;;7.13;3.33;;;11.10;77.90;;;;;;5035002;28;20479;-78
2023/12/15 03:09:21;;;;;;;5.63;3.28;;;11.10;78.00;;;;;;5035201;28;20109;-78
2023/12/15 03:11:47;;;;;;;6.28;3.53;;;11.10;77.90;;;;;;5035327;28;20525;-78
2023/12/15 03:14:13;;;;;;;5.32;3.22;;;11.00;77.80;;;;;;5035196;28;20040;-79
2023/12/15 03:16:39;;;;;;;5.50;3.25;;;11.00;78.30;;;;;;5035013;28;20045;-80
2023/12/15 03:19:06;;;;;;;6.10;3.70;;;11.00;78.60;;;;;;5034610;28;20049;-80
2023/12/15 03:21:31;;;;;;;4.97;3.13;;;10.90;78.00;;;;;;5026966;28;20049;-78
2023/12/15 03:23:57;;;;;;;6.32;3.00;;;10.90;78.30;;;;;;5014839;28;20460;-78
2023/12/15 03:26:23;;;;;;;7.57;4.07;;;10.90;78.40;;;;;;5014640;28;20121;-78
2023/12/15 03:28:48;;;;;;;8.52;4.35;;;10.90;78.40;;;;;;5013389;28;20476;-79
2023/12/15 03:31:14;;;;;;;6.15;3.70;;;11.00;78.50;;;;;;5014578;28;20034;-79
2023/12/15 03:33:40;;;;;;;7.78;3.38;;;10.90;78.40;;;;;;5014340;28;20030;-77
2023/12/15 03:36:06;;;;;;;7.55;3.55;;;11.00;78.50;;;;;;5014603;28;20038;-77
2023/12/15 03:38:34;;;;;;;6.70;3.80;;;10.90;78.90;;;;;;5014821;28;20049;-78
2023/12/15 03:41:00;;;;;;;5.97;3.92;;;10.90;78.50;;;;;;5014339;28;20395;-78
2023/12/15 03:43:26;;;;;;;6.97;3.90;;;10.90;78.60;;;;;;5014834;28;20089;-78
2023/12/15 03:45:51;;;;;;;5.60;3.42;;;10.90;78.50;;;;;;5014445;28;20104;-78
2023/12/15 03:48:17;;;;;;;5.80;3.47;;;10.90;78.50;;;;;;5014691;28;20038;-78
2023/12/15 03:50:43;;;;;;;7.78;3.60;;;10.90;78.70;;;;;;5014433;28;20068;-78
2023/12/15 03:53:08;;;;;;;7.22;3.90;;;10.80;78.70;;;;;;5009328;28;20033;-78
2023/12/15 03:55:34;;;;;;;6.57;3.88;;;10.80;78.80;;;;;;5014611;28;20030;-78
2023/12/15 03:58:00;;;;;;;7.85;4.53;;;10.80;78.80;;;;;;5014709;28;20048;-78
2023/12/15 04:00:28;;;;;;;9.30;4.70;;;10.80;78.80;;;;;;5015080;28;20066;-79
2023/12/15 04:02:53;;;;;;;9.68;5.05;;;10.80;78.50;;;;;;5015232;28;20117;-77
2023/12/15 04:05:20;;;;;;;7.20;4.32;;;10.80;78.80;;;;;;5015599;28;20109;-78
2023/12/15 04:07:46;;;;;;;6.13;3.65;;;10.80;78.80;;;;;;5015874;28;20048;-77
2023/12/15 04:10:11;;;;;;;7.57;3.83;;;10.70;78.70;;;;;;5014495;28;20049;-78
2023/12/15 04:12:37;;;;;;;6.47;3.40;;;10.70;78.70;;;;;;5014524;28;20050;-79
2023/12/15 04:15:04;;;;;;;9.27;3.90;;;10.70;78.60;;;;;;5014139;28;20034;-78
2023/12/15 04:17:29;;;;;;;7.93;3.40;;;10.80;79.10;;;;;;5013255;28;20087;-78
2023/12/15 04:19:55;;;;;;;6.90;3.67;;;10.80;78.70;;;;;;5014201;28;20022;-79
2023/12/15 04:22:22;;;;;;;9.80;4.20;;;10.80;78.40;;;;;;5012694;28;20041;-78
2023/12/15 04:24:48;;;;;;;7.55;4.40;;;10.80;78.50;;;;;;5014279;28;20030;-78
2023/12/15 04:27:14;;;;;;;5.88;3.83;;;10.80;78.30;;;;;;5014297;28;20120;-78
2023/12/15 04:29:40;;;;;;;6.78;3.50;;;10.80;78.30;;;;;;5012656;28;20117;-78
2023/12/15 04:32:06;;;;;;;8.77;3.88;;;10.80;78.40;;;;;;5014448;28;20049;-78
2023/12/15 04:34:33;;;;;;;7.75;3.50;;;10.80;78.40;;;;;;5014236;28;20030;-77
2023/12/15 04:36:59;;;;;;;8.35;3.88;;;10.80;78.40;;;;;;5014545;28;20069;-78
2023/12/15 04:39:25;;;;;;;7.53;3.40;;;10.80;78.40;;;;;;5015506;28;20088;-78
2023/12/15 04:41:51;;;;;;;6.90;3.30;;;10.80;78.50;;;;;;5013904;28;20057;-79
2023/12/15 04:44:16;;;;;;;6.65;3.47;;;10.80;78.50;;;;;;5013926;28;20033;-77
2023/12/15 04:46:42;;;;;;;6.30;3.50;;;10.80;78.50;;;;;;5014156;28;20052;-77
2023/12/15 04:49:08;;;;;;;7.25;3.47;;;10.70;78.70;;;;;;5013894;28;20467;-78
2023/12/15 04:51:34;;;;;;;9.27;3.90;;;10.60;78.50;;;;;;5013578;28;20388;-79
2023/12/15 04:53:59;;;;;;;7.32;4.03;;;10.60;78.90;;;;;;5010699;28;20040;-80
2023/12/15 04:56:25;;;;;;;7.50;3.88;;;10.60;79.00;;;;;;5011144;28;20061;-80
2023/12/15 04:58:51;;;;;;;7.55;3.97;;;10.60;79.00;;;;;;5013347;28;20121;-78
2023/12/15 05:01:17;;;;;;;6.03;3.50;;;10.60;79.30;;;;;;5013287;28;20045;-78
2023/12/15 05:03:44;;;;;;;7.57;3.67;;;10.60;79.30;;;;;;5012242;28;20549;-79
2023/12/15 05:06:20;;;;;;;7.75;3.65;;;10.60;79.20;;;;;;5013093;28;20033;-78
2023/12/15 05:08:47;;;;;;;7.43;3.10;;;10.60;78.90;;;;;;5013204;28;20104;-79
2023/12/15 05:11:13;;;;;;;8.70;4.32;;;10.60;78.90;;;;;;5012900;28;20609;-78
2023/12/15 05:13:39;;;;;;;7.68;3.72;;;10.70;78.90;;;;;;5013045;28;20073;-78
2023/12/15 05:16:05;;;;;;;7.45;3.47;;;10.70;79.10;;;;;;5013058;28;20127;-79
2023/12/15 05:18:31;;;;;;;6.57;3.53;;;10.70;79.10;;;;;;5011822;28;20112;-79
2023/12/15 05:20:57;;;;;;;5.22;2.85;;;10.70;78.90;;;;;;5012941;28;20037;-78
2023/12/15 05:23:23;;;;;;;6.07;2.90;;;10.70;78.80;;;;;;5013121;28;20041;-78
2023/12/15 05:25:49;;;;;;;6.40;2.88;;;10.70;78.80;;;;;;5012922;28;20461;-79
2023/12/15 05:28:15;;;;;;;7.28;2.83;;;10.70;78.60;;;;;;5012673;28;20042;-80
2023/12/15 05:30:41;;;;;;;6.35;2.42;;;10.70;78.70;;;;;;5011973;28;20030;-79
2023/12/15 05:33:06;;;;;;;9.50;2.80;;;10.70;78.40;;;;;;5012874;28;20116;-78
2023/12/15 05:35:33;;;;;;;4.35;2.15;;;10.70;78.10;;;;;;5012890;28;20061;-79
2023/12/15 05:37:59;;;;;;;6.80;2.63;;;10.70;78.10;;;;;;5013122;28;20419;-78
2023/12/15 05:40:25;;;;;;;6.38;2.40;;;10.70;77.80;;;;;;5011521;28;20069;-77
2023/12/15 05:42:50;;;;;;;4.40;2.13;;;10.70;78.00;;;;;;5012519;28;20049;-78
2023/12/15 05:45:16;;;;;;;4.50;2.13;;;10.70;77.60;;;;;;5012315;28;20076;-78
2023/12/15 05:47:42;;;;;;;5.85;2.20;;;10.80;77.60;;;;;;5012704;28;20380;-77
2023/12/15 05:50:08;;;;;;;3.67;2.00;;;10.80;77.30;;;;;;5012703;28;20034;-79
2023/12/15 05:52:33;;;;;;;7.03;2.28;;;10.80;77.60;;;;;;5012708;28;20037;-77
2023/12/15 05:54:59;;;;;;;5.30;2.10;;;10.80;77.60;;;;;;5012387;28;20029;-79
2023/12/15 05:57:25;;;;;;;4.35;2.17;;;10.80;77.50;;;;;;5012564;28;20103;-80
2023/12/15 05:59:50;;;;;;;4.28;2.25;;;10.80;77.50;;;;;;5006348;28;20511;-79
2023/12/15 06:02:17;;;;;;;5.95;2.17;;;10.80;77.50;;;;;;5012425;28;20077;-79
2023/12/15 06:04:43;;;;;;;6.07;2.40;;;10.80;77.40;;;;;;5012537;28;20408;-79
2023/12/15 06:07:09;;;;;;;5.65;2.50;;;10.80;77.50;;;;;;5011138;28;20096;-78
2023/12/15 06:09:36;;;;;;;5.10;2.40;;;10.80;77.70;;;;;;5012599;28;20475;-79
2023/12/15 06:12:02;;;;;;;6.45;2.80;;;10.80;77.60;;;;;;5020132;28;20033;-79
2023/12/15 06:14:28;;;;;;;6.60;2.30;;;10.80;77.80;;;;;;5031894;28;20172;-82
2023/12/15 06:16:54;;;;;;;5.50;2.33;;;10.80;78.00;;;;;;5032163;28;20100;-80
2023/12/15 06:19:19;;;;;;;4.65;2.55;;;10.80;78.00;;;;;;5031718;28;20129;-81
2023/12/15 06:21:45;;;;;;;5.25;2.40;;;10.80;78.00;;;;;;5031665;28;20052;-81
2023/12/15 06:24:11;;;;;;;7.82;2.58;;;10.80;77.90;;;;;;5032093;28;20100;-83
2023/12/15 06:26:36;;;;;;;5.50;2.67;;;10.80;78.10;;;;;;5030407;28;20044;-79
2023/12/15 06:29:02;;;;;;;4.97;2.58;;;10.80;77.70;;;;;;5021393;28;20040;-83
2023/12/15 06:31:29;;;;;;;5.32;2.47;;;10.80;78.00;;;;;;5014544;28;20105;-80
2023/12/15 06:33:55;;;;;;;6.22;2.85;;;10.80;77.90;;;;;;5012853;28;20360;-81
2023/12/15 06:36:21;;;;;;;5.65;2.35;;;10.80;78.00;;;;;;5012806;28;20038;-82
2023/12/15 06:38:47;;;;;;;4.53;2.40;;;10.80;78.00;;;;;;5012335;28;20032;-81
2023/12/15 06:41:13;;;;;;;4.97;2.58;;;10.80;78.00;;;;;;5021812;28;20124;-81
2023/12/15 06:43:44;;;;;;;5.82;3.13;;;10.80;78.00;;;;;;5034589;28;20030;-83
2023/12/15 06:46:10;;;;;;;6.88;2.45;;;10.80;78.10;;;;;;5035725;28;20064;-81
2023/12/15 06:48:36;;;;;;;7.40;2.60;;;10.80;78.00;;;;;;5035440;28;20391;-82
2023/12/15 06:51:02;;;;;;;7.95;2.63;;;10.80;78.20;;;;;;5035648;28;20030;-81
2023/12/15 06:53:28;;;;;;;9.90;2.90;;;10.90;78.20;;;;;;5035535;28;20040;-81
2023/12/15 06:55:54;;;;;;;6.88;2.40;;;11.00;78.20;;;;;;5035585;28;20372;-80
2023/12/15 06:58:20;;;;;;;12.85;3.47;;;11.40;78.10;;;;;;5037128;28;20037;-83
2023/12/15 07:00:46;;;;;;;5.53;2.72;;;11.80;77.20;;;;;;5041522;28;20088;-83
2023/12/15 07:03:11;;;;;;;7.82;2.50;;;12.30;76.30;;;;;;5038175;28;20041;-81
2023/12/15 07:05:37;;;;;;;9.60;2.58;;;12.80;75.30;;;;;;5038575;28;20442;-84
2023/12/15 07:08:03;;;;;;;7.72;2.50;;;13.20;74.50;;;;;;5036507;28;20112;-85
2023/12/15 07:10:30;;;;;;;5.22;2.10;;;13.50;73.40;;;;;;5030879;28;20471;-81
2023/12/15 07:12:56;;;;;;;5.90;2.47;;;13.80;72.70;;;;;;5024785;28;20049;-78
2023/12/15 07:15:22;;;;;;;5.65;2.13;;;14.20;72.60;;;;;;5029573;28;20033;-76
2023/12/15 07:17:48;;;;;;;9.25;2.55;;;14.40;71.80;;;;;;5035338;28;20040;-79
2023/12/15 07:20:15;;;;;;;6.32;2.15;;;14.80;71.60;;;;;;5035309;28;20104;-83
2023/12/15 07:22:41;;;;;;;5.22;2.08;;;15.10;70.60;;;;;;5035305;28;20072;-78
2023/12/15 07:25:07;;;;;;;5.70;2.30;;;15.40;70.00;;;;;;5036212;28;20038;-88
2023/12/15 07:27:34;;;;;;;4.70;1.95;;;15.80;69.60;;;;;;5036268;28;20438;-83
2023/12/15 07:30:00;;;;;;;3.88;2.05;;;16.00;68.20;;;;;;5033897;28;20034;-82
2023/12/15 07:32:25;;;;;;;6.85;2.40;;;15.80;67.00;;;;;;5035537;28;20026;-83
2023/12/15 07:34:51;;;;;;;5.20;2.20;;;14.80;68.40;;;;;;5034990;28;20041;-78
2023/12/15 07:37:16;;;;;;;5.65;2.33;;;14.10;69.40;;;;;;5033379;28;20116;-77
2023/12/15 07:39:42;;;;;;;9.25;2.85;;;13.60;70.90;;;;;;5035188;28;20041;-81
2023/12/15 07:42:08;;;;;;;6.25;2.35;;;13.20;71.40;;;;;;5034921;28;20064;-81
2023/12/15 07:44:34;;;;;;;4.25;2.05;;;12.90;72.00;;;;;;5032343;28;20040;-82
2023/12/15 07:46:59;;;;;;;5.40;2.10;;;12.70;72.10;;;;;;5025653;28;20045;-82
2023/12/15 07:49:25;;;;;;;6.95;2.05;;;12.50;72.10;;;;;;5015062;28;20058;-81
2023/12/15 07:51:51;;;;;;;7.55;2.22;;;12.40;72.30;;;;;;5014753;28;20037;-82
2023/12/15 07:54:20;;;;;;;8.52;2.33;;;12.40;72.30;;;;;;5014899;28;20094;-80
2023/12/15 07:56:46;;;;;;;7.10;2.20;;;12.30;72.60;;;;;;5017369;28;20041;-82
2023/12/15 07:59:12;;;;;;;6.93;1.75;;;12.30;72.40;;;;;;5023645;28;20447;-81
2023/12/15 08:01:38;;;;;;;4.05;1.80;;;12.20;72.10;;;;;;5034525;28;20045;-83
2023/12/15 08:04:05;;;;;;;5.55;2.22;;;12.20;72.10;;;;;;5034309;28;20151;-82
2023/12/15 08:06:31;;;;;;;5.82;2.50;;;12.10;72.20;;;;;;5033188;28;20038;-82
2023/12/15 08:08:57;;;;;;;6.13;1.90;;;12.10;72.20;;;;;;5033105;28;20120;-81
2023/12/15 08:11:23;;;;;;;5.45;2.00;;;12.10;72.10;;;;;;5033170;28;20045;-81
2023/12/15 08:13:48;;;;;;;6.15;1.92;;;12.10;72.30;;;;;;5034566;28;20060;-82
2023/12/15 08:16:14;;;;;;;5.00;1.88;;;12.10;72.20;;;;;;5034719;28;20034;-82
2023/12/15 08:18:41;;;;;;;4.47;1.70;;;12.10;72.00;;;;;;5034385;28;20084;-85
2023/12/15 08:21:07;;;;;;;5.53;1.98;;;12.10;72.00;;;;;;5032175;28;20054;-85
2023/12/15 08:23:33;;;;;;;6.13;1.92;;;12.20;71.90;;;;;;5034109;28;20037;-83
2023/12/15 08:25:59;;;;;;;6.85;2.13;;;12.20;71.40;;;;;;5034540;28;20042;-85
2023/12/15 08:28:24;;;;;;;6.15;1.52;;;12.30;71.20;;;;;;5035320;28;20087;-85
2023/12/15 08:30:50;;;;;;;8.15;2.25;;;12.30;71.20;;;;;;5034217;28;20510;-84
2023/12/15 08:33:16;;;;;;;9.32;1.83;;;12.40;71.20;;;;;;5034423;28;20037;-83
2023/12/15 08:35:42;;;;;;;3.88;1.58;;;12.40;70.90;;;;;;5034378;28;20044;-84
2023/12/15 08:38:08;;;;;;;6.80;1.63;;;12.50;70.90;;;;;;5034056;28;20033;-83
2023/12/15 08:40:34;;;;;;;4.75;1.50;;;12.60;70.90;;;;;;5032969;28;20044;-83
2023/12/15 08:43:00;;;;;;;6.30;1.67;;;12.60;70.70;;;;;;5034118;28;20034;-84
2023/12/15 08:45:26;;;;;;;2.58;1.23;;;12.70;70.80;;;;;;5035448;28;20383;-84
2023/12/15 08:47:52;;;;;;;3.95;1.45;;;12.80;70.70;;;;;;5033447;28;20045;-83
2023/12/15 08:50:17;;;;;;;3.28;1.50;;;12.80;70.70;;;;;;5034509;28;20069;-84
2023/12/15 08:52:43;;;;;;;4.00;1.40;;;12.90;70.60;;;;;;5034258;28;20040;-82
2023/12/15 08:55:10;;;;;;;8.00;2.30;;;12.90;70.40;;;;;;5034433;28;20392;-84
2023/12/15 08:57:36;;;;;;;8.32;1.80;;;13.00;70.20;;;;;;5034623;28;20136;-83
2023/12/15 09:00:04;;;;;;;3.30;1.48;;;13.00;70.10;;;;;;5034146;28;20041;-83
2023/12/15 09:02:30;;;;;;;3.42;1.42;;;13.10;69.90;;;;;;5033618;28;20120;-84
2023/12/15 09:04:56;;;;;;;6.75;2.10;;;13.10;70.10;;;;;;5034243;28;20490;-85
2023/12/15 09:07:22;;;;;;;6.28;1.88;;;13.20;69.80;;;;;;5034106;28;20037;-82
2023/12/15 09:09:47;;;;;;;3.90;1.70;;;13.30;69.40;;;;;;5034075;28;20113;-84
2023/12/15 09:12:13;;;;;;;3.33;1.55;;;13.30;69.10;;;;;;5035067;28;20464;-84
2023/12/15 09:14:39;;;;;;;7.05;1.55;;;13.40;69.10;;;;;;5035444;28;20025;-83
2023/12/15 09:17:05;;;;;;;4.95;1.58;;;13.50;68.60;;;;;;5043966;28;20037;-84
2023/12/15 09:19:32;;;;;;;4.78;1.25;;;13.60;68.20;;;;;;5043962;28;20076;-84
2023/12/15 09:21:58;;;;;;;5.95;1.42;;;13.60;67.60;;;;;;5034268;28;20379;-83
2023/12/15 09:24:23;;;;;;;4.43;1.60;;;13.70;67.50;;;;;;5037644;28;20044;-83
2023/12/15 09:26:49;;;;;;;2.58;1.30;;;13.70;67.20;;;;;;5037755;28;20140;-81
2023/12/15 09:29:15;;;;;;;2.95;1.38;;;13.80;67.10;;;;;;5033367;28;20030;-85
2023/12/15 09:31:42;;;;;;;5.63;1.52;;;13.80;67.00;;;;;;5034023;28;20490;-87
2023/12/15 09:34:07;;;;;;;4.53;1.58;;;13.90;66.80;;;;;;5033890;28;20037;-84
2023/12/15 09:36:34;;;;;;;5.40;1.33;;;13.90;66.70;;;;;;5033323;28;20095;-85
2023/12/15 09:39:00;;;;;;;7.55;1.80;;;14.00;66.70;;;;;;5032567;28;20108;-78
2023/12/15 09:41:28;;;;;;;2.65;1.20;;;14.10;66.20;;;;;;5032858;28;20053;-81
2023/12/15 09:43:55;;;;;;;4.05;1.35;;;14.10;66.10;;;;;;5035243;28;20102;-87
2023/12/15 09:46:24;;;;;;;4.15;1.30;;;14.20;66.30;;;;;;5032344;28;20025;-84
2023/12/15 09:48:50;;;;;;;4.38;1.20;;;14.20;66.00;;;;;;5033432;28;20083;-84
2023/12/15 09:51:24;;;;;;;3.90;1.40;;;14.30;65.50;;;;;;5033274;28;20029;-85
2023/12/15 09:53:51;;;;;;;3.65;1.30;;;14.40;65.80;;;;;;5033691;28;20613;-87
2023/12/15 09:56:18;;;;;;;3.60;1.50;;;14.50;64.70;;;;;;5032411;28;20069;-86
2023/12/15 09:58:43;;;;;;;4.72;1.40;;;14.50;64.40;;;;;;5033248;28;20030;-85
2023/12/15 10:01:12;;;;;;;5.72;1.77;;;14.60;64.30;;;;;;5033678;28;20545;-85
2023/12/15 10:03:39;;;;;;;6.45;1.20;;;14.70;64.10;;;;;;5033198;28;20091;-85
2023/12/15 10:06:06;;;;;;;5.22;1.35;;;14.70;63.70;;;;;;5033155;28;20044;-84
2023/12/15 10:08:45;;;;;;;5.78;1.30;;;14.80;64.40;;;;;;5033474;28;20037;-85
2023/12/15 10:11:11;;;;;;;9.07;1.10;;;14.90;62.70;;;;;;5032431;28;20045;-84
2023/12/15 10:13:41;;;;;;;4.47;1.40;;;14.90;63.20;;;;;;5033108;28;20040;-83
2023/12/15 10:16:08;;;;;;;7.55;1.40;;;15.00;62.60;;;;;;5032438;28;20460;-82
2023/12/15 10:18:34;;;;;;;5.57;1.13;;;15.00;62.40;;;;;;5033650;28;20518;-87
2023/12/15 10:21:00;;;;;;;2.88;1.33;;;15.00;62.00;;;;;;5034291;28;20069;-84
2023/12/15 10:23:30;;;;;;;6.97;2.35;;;15.10;61.40;;;;;;5036628;28;20034;-84
2023/12/15 10:25:58;;;;;;;3.55;1.23;;;15.20;60.50;;;;;;5033588;28;20034;-84
2023/12/15 10:28:24;;;;;;;4.18;1.35;;;15.20;61.20;;;;;;5036327;28;20059;-81
2023/12/15 10:30:51;;;;;;;2.08;1.10;;;15.30;60.90;;;;;;5036093;28;20029;-86
2023/12/15 10:33:21;;;;;;;2.88;1.27;;;15.40;61.10;;;;;;5034196;28;20143;-85
2023/12/15 10:35:48;;;;;;;2.80;1.40;;;15.50;61.50;;;;;;5033733;28;20052;-89
2023/12/15 10:38:17;;;;;;;3.97;1.20;;;15.50;60.90;;;;;;5034569;28;20042;-87
2023/12/15 10:40:43;;;;;;;4.72;1.27;;;15.60;60.70;;;;;;5033993;28;20163;-82
2023/12/15 10:43:13;;;;;;;6.65;1.60;;;15.60;60.20;;;;;;5034546;28;20116;-87
2023/12/15 10:45:39;;;;;;;6.13;1.23;;;15.70;60.20;;;;;;5033373;28;20026;-87
2023/12/15 10:48:07;;;;;;;2.78;1.10;;;15.70;59.90;;;;;;5033763;28;20041;-90
2023/12/15 10:50:35;;;;;;;2.90;1.10;;;15.70;59.20;;;;;;5033238;28;20030;-85
2023/12/15 10:53:02;;;;;;;2.83;1.00;;;15.70;58.80;;;;;;5032041;28;20403;-85
2023/12/15 10:55:28;;;;;;;7.15;1.42;;;15.80;58.80;;;;;;5038769;28;20040;-85
2023/12/15 10:57:58;;;;;;;4.45;1.10;;;15.80;59.00;;;;;;5042436;28;20065;-85
2023/12/15 11:00:24;;;;;;;4.80;1.30;;;15.80;58.70;;;;;;5034122;28;20068;-84
2023/12/15 11:02:51;;;;;;;4.57;1.30;;;15.90;58.20;;;;;;5034986;28;20045;-84
2023/12/15 11:05:17;;;;;;;3.67;1.40;;;15.90;58.00;;;;;;5033664;28;20037;-86
2023/12/15 11:07:43;;;;;;;3.08;1.35;;;15.90;58.10;;;;;;5036367;28;20114;-87
2023/12/15 11:10:12;;;;;;;2.92;1.20;;;16.00;58.30;;;;;;5038349;28;20091;-82
2023/12/15 11:12:42;;;;;;;3.67;1.15;;;16.10;57.30;;;;;;5040916;28;20491;-83
2023/12/15 11:15:09;;;;;;;5.10;1.30;;;16.10;57.20;;;;;;5048295;28;20026;-81
2023/12/15 11:17:46;;;;;;;5.32;1.35;;;16.20;56.60;;;;;;5034861;28;20061;-87
2023/12/15 11:20:12;;;;;;;3.38;1.48;;;16.20;57.20;;;;;;5036599;28;20045;-87
2023/12/15 11:22:50;;;;;;;2.92;1.27;;;16.30;57.40;;;;;;5035547;28;20049;-88
2023/12/15 11:25:20;;;;;;;4.53;1.55;;;16.30;56.90;;;;;;5033538;28;20033;-79
2023/12/15 11:28:11;;;;;;;6.50;1.50;;;16.30;57.00;;;;;;5035346;28;20063;-80
2023/12/15 11:30:42;;;;;;;5.70;1.45;;;16.40;56.10;;;;;;5035110;28;20033;-78
2023/12/15 11:33:26;;;;;;;5.63;1.50;;;16.50;56.80;;;;;;5037942;28;20056;-79
2023/12/15 22:11:46;;;;;;;4.80;1.40;;;11.50;46.90;;;;;;5094599;22;20075;-82
2023/12/15 22:14:12;;;;;;;4.32;1.50;;;11.50;47.90;;;;;;5097126;28;20032;-82
2023/12/15 22:16:39;;;;;;;3.78;1.50;;;11.50;47.60;;;;;;5096560;28;20481;-81
2023/12/15 22:19:05;;;;;;;4.15;1.70;;;11.50;48.20;;;;;;5098647;28;20043;-81
2023/12/15 22:21:35;;;;;;;4.50;1.80;;;11.50;48.10;;;;;;5098183;28;20044;-80
2023/12/15 22:24:01;;;;;;;3.03;1.42;;;11.40;48.10;;;;;;5093807;28;20081;-82
2023/12/15 22:26:27;;;;;;;6.88;1.80;;;11.30;48.50;;;;;;5093420;28;20106;-81
2023/12/15 22:28:54;;;;;;;4.38;1.85;;;11.30;48.20;;;;;;5093362;28;20043;-81
2023/12/15 22:31:22;;;;;;;3.42;1.42;;;11.30;48.70;;;;;;5075294;28;20035;-82
2023/12/15 22:33:50;;;;;;;5.45;1.70;;;11.20;48.40;;;;;;5093669;28;20280;-82
2023/12/15 22:36:22;;;;;;;3.17;1.42;;;11.20;48.30;;;;;;5096193;28;20043;-80
2023/12/15 22:38:48;;;;;;;8.90;1.90;;;11.30;48.30;;;;;;5093860;28;20040;-82
2023/12/15 22:41:15;;;;;;;5.50;1.60;;;11.20;48.10;;;;;;5093002;28;20043;-80
2023/12/15 22:43:42;;;;;;;6.75;1.63;;;11.20;48.40;;;;;;5093273;28;20024;-81
2023/12/15 22:46:08;;;;;;;5.30;2.00;;;11.20;48.30;;;;;;5093094;28;20032;-80
2023/12/15 22:48:34;;;;;;;6.40;1.83;;;11.20;48.70;;;;;;5093136;28;20033;-79
2023/12/15 22:51:03;;;;;;;5.47;1.60;;;11.10;48.30;;;;;;5094290;28;20058;-81
2023/12/15 22:53:29;;;;;;;12.65;2.13;;;11.10;48.60;;;;;;5076055;28;20043;-82
2023/12/15 22:55:55;;;;;;;4.00;1.70;;;11.10;48.70;;;;;;5097235;28;20039;-81
2023/12/15 22:58:21;;;;;;;6.20;2.03;;;11.10;48.80;;;;;;5100694;28;20028;-79
2023/12/15 23:00:47;;;;;;;3.92;1.75;;;11.00;48.70;;;;;;5115693;28;20012;-81
2023/12/15 23:03:13;;;;;;;5.03;1.80;;;11.00;48.70;;;;;;5107522;28;20089;-81
2023/12/15 23:05:39;;;;;;;3.70;1.50;;;11.00;48.70;;;;;;5094129;28;20485;-80
2023/12/15 23:08:04;;;;;;;4.70;1.70;;;11.00;48.80;;;;;;5093152;28;20043;-81
2023/12/15 23:10:30;;;;;;;4.30;1.80;;;11.00;48.80;;;;;;5093038;28;20021;-79
2023/12/15 23:12:56;;;;;;;4.40;1.90;;;11.00;48.90;;;;;;5074939;28;20511;-80
2023/12/15 23:15:22;;;;;;;6.13;1.50;;;11.00;48.70;;;;;;5094380;28;20028;-79
2023/12/15 23:17:48;;;;;;;4.72;1.60;;;11.00;49.00;;;;;;5092781;28;20085;-80
2023/12/15 23:20:14;;;;;;;3.80;1.48;;;11.00;49.50;;;;;;5092409;28;20539;-77